Time;durP1;ratioP1;P1;durP2;ratioP2;P2;SDS_P1;SDS_P2;PMS_P1;PMS_P2;Temp;Humidity;BMP_temperature;BMP_pressure;BME280_temperature;BME280_humidity;BME280_pressure;Samples;Min_cycle;Max_cycle;Signal;HPM_P1;HPM_P2
2023/08/13 00:00:15;;;;;;;9.35;5.28;;;21.00;99.90;;;22.71;66.02;97923.84;5035937;28;20045;-57
2023/08/13 00:02:44;;;;;;;8.18;6.60;;;21.00;99.90;;;22.68;66.03;97927.84;5033010;28;20485;-58
2023/08/13 00:05:12;;;;;;;7.60;5.18;;;21.00;99.90;;;22.66;66.05;97923.69;5040468;28;20049;-57
2023/08/13 00:07:40;;;;;;;18.95;9.40;;;21.00;99.90;;;22.66;66.37;97923.69;5044914;28;20490;-57
2023/08/13 00:10:08;;;;;;;9.07;6.70;;;21.00;99.90;;;22.66;66.22;97915.56;5042448;28;20048;-56
2023/08/13 00:12:35;;;;;;;10.88;6.18;;;21.00;99.90;;;22.66;66.13;97915.56;5034862;28;20072;-57
2023/08/13 00:15:04;;;;;;;38.95;26.10;;;21.00;99.90;;;22.65;66.22;97914.75;5045520;28;20048;-57
2023/08/13 00:17:31;;;;;;;77.47;50.17;;;21.00;99.90;;;22.65;66.25;97911.22;5042648;28;20068;-57
2023/08/13 00:19:59;;;;;;;34.45;23.17;;;21.00;99.90;;;22.63;66.08;97918.75;5041157;28;20057;-57
2023/08/13 00:22:27;;;;;;;19.25;14.20;;;21.00;99.90;;;22.62;66.24;97917.91;5042564;28;20041;-57
2023/08/13 00:24:55;;;;;;;14.00;9.82;;;21.00;99.90;;;22.62;66.58;97920.63;5048359;28;20053;-58
2023/08/13 00:27:22;;;;;;;8.13;5.80;;;21.00;99.90;;;22.63;66.36;97913.31;5040263;28;20041;-58
2023/08/13 00:29:50;;;;;;;7.43;5.63;;;21.00;99.90;;;22.61;66.41;97914.38;5015804;28;20308;-58
2023/08/13 00:32:18;;;;;;;6.18;5.57;;;21.00;99.90;;;22.60;66.63;97914.59;5039503;28;20049;-58
2023/08/13 00:34:45;;;;;;;4.88;4.38;;;21.00;99.90;;;22.60;66.81;97918.16;5007427;28;20397;-57
2023/08/13 00:37:13;;;;;;;4.90;4.38;;;21.00;99.90;;;22.59;66.90;97916.50;5039702;28;20413;-57
2023/08/13 00:39:41;;;;;;;6.22;4.28;;;21.00;99.90;;;22.57;66.88;97902.34;5040383;28;20493;-58
2023/08/13 00:42:08;;;;;;;6.38;4.13;;;21.00;99.90;;;22.60;67.05;97911.88;5040364;28;20042;-57
2023/08/13 00:44:36;;;;;;;4.30;3.80;;;21.00;99.90;;;22.59;67.04;97913.78;5041747;28;20052;-58
2023/08/13 00:47:06;;;;;;;4.53;3.78;;;21.00;99.90;;;22.59;67.06;97911.06;5043146;28;20049;-58
2023/08/13 00:49:34;;;;;;;6.40;4.88;;;21.00;99.90;;;22.60;66.81;97912.72;5040476;28;20533;-59
2023/08/13 00:52:02;;;;;;;4.90;4.28;;;21.00;99.90;;;22.60;67.02;97912.72;5036955;28;20042;-59
2023/08/13 00:54:30;;;;;;;5.22;4.53;;;21.00;99.90;;;22.60;66.83;97914.59;5041658;28;20079;-58
2023/08/13 00:56:58;;;;;;;5.85;4.32;;;21.00;99.90;;;22.57;66.90;97915.91;5036338;28;20397;-59
2023/08/13 00:59:26;;;;;;;5.13;4.32;;;21.00;99.90;;;22.54;66.93;97916.34;5025507;28;20056;-59
2023/08/13 01:01:54;;;;;;;6.53;5.82;;;21.00;99.90;;;22.51;66.97;97916.81;5023584;28;20515;-58
2023/08/13 01:04:22;;;;;;;5.47;4.32;;;20.90;99.90;;;22.50;67.30;97923.28;5040099;28;20049;-58
2023/08/13 01:07:24;;;;;;;6.03;4.22;;;20.90;99.90;;;22.45;67.05;97925.91;5032405;28;20420;-58
2023/08/13 01:10:33;;;;;;;5.15;4.28;;;20.80;99.90;;;22.41;67.07;97925.53;5032374;28;20053;-58
2023/08/13 01:13:25;;;;;;;5.68;4.75;;;20.80;99.90;;;22.40;67.32;97923.03;5033079;28;20504;-58
2023/08/13 01:15:56;;;;;;;7.13;3.97;;;20.80;99.90;;;22.36;67.16;97921.84;5043979;28;20052;-59
2023/08/13 01:18:28;;;;;;;7.03;4.18;;;20.70;99.90;;;22.36;67.23;97917.25;5043072;28;20341;-58
2023/08/13 01:20:56;;;;;;;5.32;4.10;;;20.70;99.90;;;22.35;67.12;97914.75;5022797;28;20049;-58
2023/08/13 01:23:23;;;;;;;6.63;3.38;;;20.70;99.90;;;22.36;67.17;97917.25;5039664;28;20052;-59
2023/08/13 01:26:02;;;;;;;7.00;4.05;;;20.70;99.90;;;22.38;67.00;97922.44;5039462;28;20048;-59
2023/08/13 01:28:39;;;;;;;4.57;3.25;;;20.80;99.90;;;22.38;66.65;97909.69;5039424;28;20049;-59
2023/08/13 01:31:18;;;;;;;6.15;3.80;;;20.80;99.90;;;22.36;66.86;97903.69;5035889;28;20428;-58
2023/08/13 01:33:47;;;;;;;6.47;3.67;;;20.70;99.90;;;22.36;66.63;97916.41;5041842;28;20029;-59
2023/08/13 01:36:16;;;;;;;4.80;4.18;;;20.80;99.90;;;22.36;66.44;97909.09;5018959;28;20052;-58
2023/08/13 01:38:46;;;;;;;5.10;3.70;;;20.80;99.90;;;22.35;66.67;97907.47;5041159;28;20382;-59
2023/08/13 01:41:14;;;;;;;6.93;3.95;;;20.80;99.90;;;22.36;66.53;97908.28;5018731;28;20038;-58
2023/08/13 01:43:42;;;;;;;6.60;3.90;;;20.80;99.90;;;22.33;66.35;97915.00;5021996;28;20057;-58
2023/08/13 01:46:09;;;;;;;6.07;4.10;;;20.70;99.90;;;22.35;66.40;97915.59;5038591;28;20493;-58
2023/08/13 01:48:37;;;;;;;4.93;3.40;;;20.80;99.90;;;22.35;66.53;97914.75;5039587;28;20052;-58
2023/08/13 01:51:05;;;;;;;5.30;3.95;;;20.70;99.90;;;22.34;66.54;97908.50;5039876;28;20491;-58
2023/08/13 01:53:32;;;;;;;6.00;3.75;;;20.80;99.90;;;22.34;66.46;97902.28;5038453;28;20061;-59
2023/08/13 01:56:00;;;;;;;4.32;3.63;;;20.70;99.90;;;22.35;66.50;97903.91;5038985;28;20060;-58
2023/08/13 01:58:27;;;;;;;5.53;3.80;;;20.70;99.90;;;22.33;66.31;97895.16;5038689;28;20119;-59
2023/08/13 02:00:55;;;;;;;3.90;3.50;;;20.70;99.90;;;22.30;66.24;97909.22;5041775;28;20045;-58
2023/08/13 02:03:23;;;;;;;4.65;3.63;;;20.70;99.90;;;22.28;66.33;97914.03;5041263;28;20045;-59
2023/08/13 02:05:51;;;;;;;7.57;3.40;;;20.60;99.90;;;22.27;66.57;97934.06;5038085;28;20420;-59
2023/08/13 02:08:18;;;;;;;4.68;3.22;;;20.60;99.90;;;22.28;66.62;97930.31;5039477;28;20072;-59
2023/08/13 02:10:46;;;;;;;5.50;3.72;;;20.70;99.90;;;22.31;66.58;97925.22;5040970;28;20049;-58
2023/08/13 02:13:14;;;;;;;4.38;3.47;;;20.70;99.90;;;22.34;66.69;97927.50;5041625;28;20049;-58
2023/08/13 02:15:42;;;;;;;4.85;3.60;;;20.80;99.90;;;22.31;66.74;97919.00;5039543;28;20416;-58
2023/08/13 02:18:09;;;;;;;9.25;4.32;;;20.70;99.90;;;22.35;66.68;97918.31;5021915;28;20052;-59
2023/08/13 02:20:37;;;;;;;5.45;3.55;;;20.80;99.90;;;22.36;66.77;97922.66;5038982;28;20054;-58
2023/08/13 02:23:06;;;;;;;4.50;3.38;;;20.80;99.90;;;22.40;66.49;97931.19;5041776;28;20404;-58
2023/08/13 02:25:34;;;;;;;5.25;3.50;;;20.80;99.90;;;22.39;66.78;97922.22;5042128;28;20500;-59
2023/08/13 02:28:02;;;;;;;4.75;3.60;;;20.80;99.90;;;22.40;66.83;97921.16;5039141;28;20037;-59
2023/08/13 02:30:29;;;;;;;5.30;3.60;;;20.80;99.90;;;22.42;66.91;97919.03;5037913;28;20060;-59
2023/08/13 02:32:57;;;;;;;5.75;3.55;;;20.80;99.90;;;22.44;66.61;97923.41;5031763;28;20041;-58
2023/08/13 02:35:25;;;;;;;4.05;3.58;;;20.90;99.90;;;22.43;66.78;97911.75;5042520;28;20048;-58
2023/08/13 02:37:52;;;;;;;5.30;4.07;;;20.90;99.90;;;22.46;67.03;97913.16;5025588;28;20523;-58
2023/08/13 02:40:20;;;;;;;4.53;3.55;;;20.90;99.90;;;22.47;66.95;97907.50;5042279;28;20045;-58
2023/08/13 02:42:47;;;;;;;6.28;4.45;;;20.80;99.90;;;22.48;66.81;97916.47;5044716;28;20052;-58
2023/08/13 02:45:15;;;;;;;4.55;3.88;;;20.90;99.90;;;22.47;66.65;97907.50;5045403;28;20049;-58
2023/08/13 02:47:43;;;;;;;6.38;4.10;;;20.90;99.90;;;22.46;66.75;97903.13;5045213;28;20053;-58
2023/08/13 02:50:11;;;;;;;4.40;3.83;;;20.90;99.90;;;22.48;66.64;97898.28;5042756;28;20041;-59
2023/08/13 02:52:39;;;;;;;7.10;3.72;;;20.90;99.90;;;22.47;66.56;97904.78;5042638;28;20056;-59
2023/08/13 02:55:07;;;;;;;4.75;4.25;;;20.90;99.90;;;22.48;66.51;97901.00;5046481;28;20052;-58
2023/08/13 02:57:35;;;;;;;4.68;3.80;;;20.90;99.90;;;22.48;66.60;97906.44;5045930;28;20048;-59
2023/08/13 03:00:11;;;;;;;5.22;4.10;;;20.90;99.90;;;22.50;66.29;97917.88;5042047;28;20049;-58
2023/08/13 03:02:38;;;;;;;4.88;3.42;;;20.90;99.90;;;22.50;66.50;97895.34;5039894;28;20053;-58
2023/08/13 03:05:06;;;;;;;5.53;3.40;;;20.90;99.90;;;22.52;66.43;97901.38;5041010;28;20148;-59
2023/08/13 03:07:34;;;;;;;5.25;3.60;;;20.90;99.90;;;22.51;66.52;97899.72;5042790;28;20054;-59
2023/08/13 03:10:03;;;;;;;4.40;4.00;;;20.90;99.90;;;22.51;66.11;97905.97;5044401;28;20045;-59
2023/08/13 03:12:31;;;;;;;4.70;3.47;;;20.90;99.90;;;22.53;66.24;97900.31;5045241;28;20056;-59
2023/08/13 03:14:59;;;;;;;4.93;3.30;;;20.90;99.90;;;22.54;65.89;97907.38;5041318;28;20046;-58
2023/08/13 03:17:27;;;;;;;6.20;3.17;;;21.00;99.90;;;22.54;65.60;97904.69;5041935;28;20049;-58
2023/08/13 03:19:55;;;;;;;5.53;3.25;;;21.00;99.90;;;22.54;65.68;97919.06;5043832;28;21382;-59
2023/08/13 03:22:23;;;;;;;4.90;3.65;;;21.00;99.90;;;22.53;65.59;97903.84;5045397;28;20425;-59
2023/08/13 03:24:51;;;;;;;5.55;3.60;;;20.90;99.90;;;22.52;65.45;97899.47;5042068;28;20504;-58
2023/08/13 03:27:18;;;;;;;3.83;2.92;;;20.90;99.90;;;22.52;65.54;97904.91;5042592;28;20045;-58
2023/08/13 03:29:46;;;;;;;5.38;3.70;;;20.90;99.90;;;22.51;65.43;97903.25;5042525;28;20042;-58
2023/08/13 03:32:15;;;;;;;6.72;3.20;;;20.90;99.90;;;22.49;65.40;97899.97;5045480;28;20053;-58
2023/08/13 03:34:43;;;;;;;4.35;3.30;;;20.90;99.90;;;22.47;65.58;97899.38;5027173;28;20041;-59
2023/08/13 03:37:11;;;;;;;4.75;3.20;;;20.90;99.90;;;22.47;65.39;97898.50;5025212;28;20050;-58
2023/08/13 03:39:39;;;;;;;4.68;3.00;;;20.90;99.90;;;22.45;65.22;97893.34;5041712;28;20041;-59
2023/08/13 03:42:08;;;;;;;4.15;3.40;;;20.90;99.90;;;22.46;65.45;97896.88;5040762;28;20053;-59
2023/08/13 03:44:36;;;;;;;3.90;2.80;;;20.90;99.90;;;22.46;65.39;97884.13;5040730;28;20049;-59
2023/08/13 03:47:05;;;;;;;3.92;3.30;;;20.90;99.90;;;22.48;65.47;97892.03;5049144;28;20050;-58
2023/08/13 03:49:35;;;;;;;5.07;3.65;;;20.90;99.90;;;22.47;65.52;97907.50;5040937;28;20053;-59
2023/08/13 03:52:03;;;;;;;5.43;3.47;;;20.90;99.90;;;22.45;65.50;97901.47;5040392;28;20056;-59
2023/08/13 03:54:30;;;;;;;5.88;4.53;;;20.80;99.90;;;22.45;65.64;97901.47;5040682;28;20049;-58
2023/08/13 03:56:58;;;;;;;5.72;3.47;;;20.90;99.90;;;22.46;65.41;97907.72;5040492;28;20061;-59
2023/08/13 03:59:27;;;;;;;7.53;4.03;;;20.90;99.90;;;22.45;65.65;97892.50;5040261;28;20056;-58
2023/08/13 04:01:57;;;;;;;4.10;3.30;;;20.90;99.90;;;22.45;65.84;97909.63;5018141;28;20061;-57
2023/08/13 04:04:25;;;;;;;4.40;3.70;;;20.90;99.90;;;22.44;65.86;97909.84;5043188;28;20048;-59
2023/08/13 04:06:53;;;;;;;5.45;3.70;;;20.80;99.90;;;22.43;65.62;97906.31;5043157;28;20489;-59
2023/08/13 04:09:20;;;;;;;6.32;4.28;;;20.90;99.90;;;22.42;65.67;97896.50;5038826;28;20053;-59
2023/08/13 04:11:49;;;;;;;3.92;3.42;;;20.80;99.90;;;22.38;65.27;97895.31;5042233;28;20049;-58
2023/08/13 04:14:16;;;;;;;4.00;3.60;;;20.70;99.90;;;22.35;65.56;97888.47;5040293;28;20041;-58
2023/08/13 04:16:44;;;;;;;4.20;3.80;;;20.70;99.90;;;22.35;65.91;97901.19;5040782;28;20053;-59
2023/08/13 04:19:13;;;;;;;7.18;4.25;;;20.70;99.90;;;22.35;65.82;97890.34;5043213;28;20064;-59
2023/08/13 04:21:40;;;;;;;6.20;3.72;;;20.80;99.90;;;22.36;66.15;97894.72;5044716;28;20052;-58
2023/08/13 04:24:09;;;;;;;5.10;3.55;;;20.80;99.90;;;22.36;65.92;97892.00;5032251;28;20068;-58
2023/08/13 04:26:37;;;;;;;5.65;3.35;;;20.80;99.90;;;22.36;65.96;97894.72;5040729;28;20049;-58
2023/08/13 04:29:07;;;;;;;4.72;3.75;;;20.80;99.90;;;22.34;66.02;97891.41;5040329;28;20201;-59
2023/08/13 04:31:37;;;;;;;6.35;4.22;;;20.80;99.90;;;22.35;65.88;97890.34;5039608;28;20053;-60
2023/08/13 04:34:04;;;;;;;4.30;3.47;;;20.80;99.90;;;22.33;65.89;97897.88;5040455;28;20052;-60
2023/08/13 04:36:33;;;;;;;6.25;3.33;;;20.70;99.90;;;22.31;65.83;97892.69;5040097;28;20050;-60
2023/08/13 04:39:00;;;;;;;4.03;3.42;;;20.70;99.90;;;22.33;66.10;97889.75;5042485;28;20046;-59
2023/08/13 04:41:30;;;;;;;4.43;3.40;;;20.70;99.90;;;22.31;66.21;97889.97;5042751;28;20519;-59
2023/08/13 04:43:58;;;;;;;4.15;3.75;;;20.70;99.90;;;22.30;66.09;97891.03;5041023;28;20045;-60
2023/08/13 04:46:26;;;;;;;4.85;3.80;;;20.70;99.90;;;22.28;66.15;97892.34;5039979;28;20049;-59
2023/08/13 04:48:57;;;;;;;4.45;3.22;;;20.60;99.90;;;22.28;66.24;97895.88;5041384;28;20049;-60
2023/08/13 04:51:26;;;;;;;3.88;3.47;;;20.70;99.90;;;22.29;66.24;97897.50;5042534;28;20394;-60
2023/08/13 04:53:54;;;;;;;6.68;3.85;;;20.70;99.90;;;22.30;65.95;97903.78;5041133;28;20048;-60
2023/08/13 04:56:25;;;;;;;5.65;3.55;;;20.70;99.90;;;22.30;65.96;97903.78;5038981;28;20516;-60
2023/08/13 04:58:53;;;;;;;3.92;3.15;;;20.70;99.90;;;22.30;66.03;97903.78;5040465;28;20053;-60
2023/08/13 05:01:21;;;;;;;4.85;3.17;;;20.70;99.90;;;22.33;66.08;97903.31;5037212;28;20049;-60
2023/08/13 05:03:52;;;;;;;5.75;3.10;;;20.80;99.90;;;22.32;66.23;97899.78;5039690;28;20041;-60
2023/08/13 05:06:20;;;;;;;3.05;2.58;;;20.70;99.90;;;22.33;66.19;97897.88;5042679;28;20484;-60
2023/08/13 05:08:48;;;;;;;4.75;3.08;;;20.70;99.90;;;22.35;66.24;97898.47;5041881;28;20508;-60
2023/08/13 05:11:17;;;;;;;4.45;3.60;;;20.80;99.90;;;22.35;65.91;97893.06;5038654;28;20049;-59
2023/08/13 05:13:45;;;;;;;3.72;2.80;;;20.80;99.90;;;22.38;66.26;97895.31;5039561;28;20054;-60
2023/08/13 05:16:14;;;;;;;3.58;3.03;;;20.80;99.90;;;22.40;66.21;97893.19;5042028;28;20420;-60
2023/08/13 05:18:43;;;;;;;3.67;2.92;;;20.80;99.90;;;22.41;66.01;97898.41;5042058;28;20052;-60
2023/08/13 05:21:11;;;;;;;4.05;2.95;;;20.90;99.90;;;22.41;66.32;97901.13;5038758;28;20045;-60
2023/08/13 05:23:38;;;;;;;3.88;2.90;;;20.80;99.90;;;22.42;66.44;97899.22;5039386;28;20044;-60
2023/08/13 05:26:06;;;;;;;3.92;3.15;;;20.80;99.90;;;22.46;66.41;97896.88;5038910;28;20052;-60
2023/08/13 05:28:34;;;;;;;3.97;3.13;;;20.90;99.90;;;22.48;66.51;97908.31;5039029;28;20421;-59
2023/08/13 05:31:03;;;;;;;6.45;3.17;;;21.00;99.90;;;22.51;66.45;97903.25;5040588;28;20060;-60
2023/08/13 05:33:31;;;;;;;4.72;3.15;;;21.00;99.90;;;22.54;66.18;97897.34;5041992;28;20056;-60
2023/08/13 05:35:59;;;;;;;6.00;3.03;;;21.00;99.90;;;22.58;66.13;97903.97;5040205;28;20397;-60
2023/08/13 05:38:31;;;;;;;5.05;3.65;;;21.10;99.90;;;22.62;65.69;97909.75;5038801;28;20045;-60
2023/08/13 05:41:00;;;;;;;4.18;3.10;;;21.10;99.90;;;22.61;65.96;97910.84;5039720;28;20053;-60
2023/08/13 05:43:27;;;;;;;5.00;4.18;;;21.10;99.90;;;22.61;66.12;97917.09;5043582;28;20420;-60
2023/08/13 05:45:55;;;;;;;4.68;3.53;;;21.10;99.90;;;22.61;66.16;97911.66;5041705;28;20048;-59
2023/08/13 05:48:23;;;;;;;4.25;3.58;;;21.10;99.90;;;22.66;66.04;97915.56;5038646;28;20050;-59
2023/08/13 05:50:51;;;;;;;3.92;3.53;;;21.10;99.90;;;22.68;66.04;97918.88;5021773;28;20041;-57
2023/08/13 05:53:18;;;;;;;4.68;3.78;;;21.20;99.90;;;22.66;66.12;97916.38;5021588;28;20417;-58
2023/08/13 05:55:50;;;;;;;5.40;3.85;;;21.10;99.90;;;22.71;66.17;97923.84;5040084;28;20393;-58
2023/08/13 05:58:18;;;;;;;5.50;3.83;;;21.20;99.90;;;22.71;66.31;97921.13;5043008;28;20539;-58
2023/08/13 06:00:46;;;;;;;6.35;3.72;;;21.20;99.90;;;22.73;66.26;97916.28;5041782;28;20041;-58
2023/08/13 06:03:14;;;;;;;5.30;4.15;;;21.20;99.90;;;22.74;66.35;97918.78;5030486;28;20420;-58
2023/08/13 06:05:42;;;;;;;5.70;4.18;;;21.20;99.90;;;22.75;66.21;97916.88;5043106;28;20041;-59
2023/08/13 06:08:09;;;;;;;4.53;3.83;;;21.20;99.90;;;22.76;66.39;97913.94;5039396;28;20045;-59
2023/08/13 06:10:37;;;;;;;6.40;3.47;;;21.20;99.90;;;22.79;66.22;97920.78;5039452;28;20057;-57
2023/08/13 06:13:05;;;;;;;5.40;3.78;;;21.20;99.90;;;22.83;66.40;97915.72;5041309;28;20049;-58
2023/08/13 06:15:32;;;;;;;4.22;3.83;;;21.30;99.90;;;22.84;66.45;97912.78;5043089;28;20484;-59
2023/08/13 06:18:00;;;;;;;5.15;3.72;;;21.30;99.90;;;22.87;66.21;97911.47;5041428;28;20511;-59
2023/08/13 06:20:28;;;;;;;4.88;4.05;;;21.30;99.90;;;22.89;66.15;97921.03;5039169;28;20053;-58
2023/08/13 06:22:55;;;;;;;5.97;4.28;;;21.40;99.90;;;22.90;66.06;97914.53;5037908;28;20045;-58
2023/08/13 06:25:23;;;;;;;4.80;4.30;;;21.40;99.90;;;22.93;66.30;97915.97;5039421;28;20046;-58
2023/08/13 06:27:51;;;;;;;4.20;3.78;;;21.40;99.90;;;22.92;66.19;97917.03;5039347;28;20140;-58
2023/08/13 06:30:18;;;;;;;5.47;4.55;;;21.40;99.90;;;22.93;66.38;97918.66;5029783;28;20052;-58
2023/08/13 06:32:46;;;;;;;6.07;5.03;;;21.40;99.90;;;22.93;66.39;97919.50;5037909;28;20041;-59
2023/08/13 06:35:15;;;;;;;6.63;4.57;;;21.40;99.90;;;22.94;66.44;97925.78;5039834;28;20048;-57
2023/08/13 06:37:42;;;;;;;4.65;4.13;;;21.30;99.90;;;22.95;66.43;97930.97;5041523;28;20052;-59
2023/08/13 06:40:28;;;;;;;4.70;4.20;;;21.40;99.90;;;22.97;66.23;97930.72;5035640;28;20512;-59
2023/08/13 06:42:56;;;;;;;7.75;4.18;;;21.40;99.90;;;22.99;66.21;97929.44;5036434;28;20046;-59
2023/08/13 06:45:26;;;;;;;7.03;4.57;;;21.40;99.90;;;23.03;66.25;97937.13;5041576;28;20492;-59
2023/08/13 06:47:57;;;;;;;4.80;4.10;;;21.50;99.90;;;23.02;66.37;97928.13;5032799;28;20041;-59
2023/08/13 06:50:26;;;;;;;5.18;4.22;;;21.50;99.90;;;23.05;66.39;97930.44;5036851;28;20045;-58
2023/08/13 06:52:54;;;;;;;5.03;4.53;;;21.50;99.90;;;23.10;66.39;97927.00;5029966;28;20052;-59
2023/08/13 06:55:22;;;;;;;7.20;5.30;;;21.60;99.90;;;23.13;66.60;97927.34;5030602;28;20056;-58
2023/08/13 06:57:51;;;;;;;5.85;5.10;;;21.70;99.90;;;23.16;66.55;97932.28;5038262;28;20056;-58
2023/08/13 07:00:20;;;;;;;5.00;4.45;;;21.70;99.90;;;23.21;66.59;97925.34;5039273;28;20413;-57
2023/08/13 07:02:52;;;;;;;;;;;21.80;99.90;;;23.26;66.50;97933.59;5041538;28;20045;-59
2023/08/13 07:05:20;;;;;;;4.70;4.25;;;21.80;99.90;;;23.30;66.22;97922.06;5037932;28;19944;-59
2023/08/13 07:07:49;;;;;;;5.65;4.05;;;21.70;99.90;;;23.33;66.50;97939.75;5036958;28;20065;-59
2023/08/13 07:10:17;;;;;;;4.82;3.90;;;21.80;99.90;;;23.35;66.55;97937.63;5040011;28;20051;-59
2023/08/13 07:12:44;;;;;;;7.13;4.35;;;21.90;99.90;;;23.37;66.41;97940.94;5041423;28;20136;-58
2023/08/13 07:15:12;;;;;;;4.53;4.05;;;21.90;99.90;;;23.41;66.40;97931.25;5038443;28;20045;-58
2023/08/13 07:17:39;;;;;;;4.97;3.78;;;21.90;99.90;;;23.45;66.27;97928.88;5038009;28;20057;-57
2023/08/13 07:20:09;;;;;;;5.25;3.55;;;22.00;99.90;;;23.49;65.95;97938.22;5038848;28;20046;-58
2023/08/13 07:22:37;;;;;;;3.40;2.90;;;22.10;99.90;;;23.51;66.00;97931.47;5039163;28;20046;-59
2023/08/13 07:25:05;;;;;;;4.20;3.80;;;22.10;99.90;;;23.52;65.94;97924.97;5033204;28;20049;-59
2023/08/13 07:27:34;;;;;;;5.35;3.83;;;22.10;99.90;;;23.53;65.74;97936.66;5039771;28;20049;-59
2023/08/13 07:30:02;;;;;;;4.75;3.83;;;22.10;99.90;;;23.52;65.51;97932.31;5041156;28;20396;-59
2023/08/13 07:32:29;;;;;;;4.25;3.83;;;22.10;99.90;;;23.54;65.53;97924.75;5044802;28;20048;-58
2023/08/13 07:34:57;;;;;;;3.50;3.05;;;22.10;99.90;;;23.53;65.64;97915.75;5044809;28;20048;-59
2023/08/13 07:37:26;;;;;;;5.13;3.20;;;22.10;99.90;;;23.58;65.82;97936.78;5043879;28;20052;-59
2023/08/13 07:39:55;;;;;;;5.40;4.10;;;22.20;99.90;;;23.62;66.03;97927.09;5044155;28;20063;-59
2023/08/13 07:42:23;;;;;;;6.78;3.95;;;22.20;99.90;;;23.67;65.99;97932.66;5040747;28;20042;-59
2023/08/13 07:44:51;;;;;;;5.03;4.53;;;22.30;99.90;;;23.70;66.03;97932.16;5040829;28;20041;-59
2023/08/13 07:47:19;;;;;;;4.10;3.65;;;22.30;99.90;;;23.75;65.95;97931.47;5043491;28;20049;-59
2023/08/13 07:49:46;;;;;;;5.57;3.90;;;22.30;99.90;;;23.80;65.88;97931.56;5034370;28;20049;-59
2023/08/13 07:52:14;;;;;;;5.00;3.60;;;22.40;99.90;;;23.84;65.80;97934.66;5041227;28;20067;-59
2023/08/13 07:54:42;;;;;;;5.28;3.38;;;22.50;99.90;;;23.86;65.75;97927.91;5031807;28;20045;-59
2023/08/13 07:57:10;;;;;;;3.58;3.22;;;22.60;99.90;;;23.92;65.24;97932.41;5035570;28;20516;-59
2023/08/13 07:59:38;;;;;;;5.70;3.15;;;22.70;99.90;;;23.96;64.72;97935.44;5028578;28;20049;-59
2023/08/13 08:02:06;;;;;;;3.28;2.83;;;22.70;99.90;;;24.00;64.48;97931.19;5041314;28;20045;-59
2023/08/13 08:04:33;;;;;;;3.80;2.90;;;22.70;99.90;;;24.03;64.60;97932.59;5042669;28;20098;-59
2023/08/13 08:07:01;;;;;;;5.15;2.92;;;22.80;99.90;;;24.05;64.28;97938.63;5043996;28;20040;-58
2023/08/13 08:09:29;;;;;;;4.05;3.15;;;22.70;99.90;;;24.10;64.15;97938.72;5040393;28;20033;-59
2023/08/13 08:11:56;;;;;;;4.45;2.95;;;22.80;99.90;;;24.13;63.95;97930.88;5040281;28;20049;-58
2023/08/13 08:14:24;;;;;;;4.60;3.22;;;22.80;99.90;;;24.14;63.92;97923.56;5043238;28;20056;-59
2023/08/13 08:16:57;;;;;;;3.28;2.95;;;22.80;99.90;;;24.12;63.80;97923.00;5043899;28;20172;-59
2023/08/13 08:19:24;;;;;;;4.00;2.60;;;22.70;99.90;;;24.12;64.03;97910.22;5040577;28;20416;-59
2023/08/13 08:21:56;;;;;;;3.63;2.88;;;22.70;99.90;;;24.14;63.84;97909.97;5037541;28;20488;-59
2023/08/13 08:24:25;;;;;;;2.97;2.67;;;22.70;99.90;;;24.19;64.11;97923.66;5039792;28;20053;-59
2023/08/13 08:26:52;;;;;;;4.88;3.08;;;22.80;99.90;;;24.22;63.97;97916.94;5038956;28;20037;-59
2023/08/13 08:29:20;;;;;;;3.03;2.60;;;22.80;99.90;;;24.22;63.70;97917.75;5042243;28;20050;-57
2023/08/13 08:31:48;;;;;;;3.97;3.15;;;22.80;99.90;;;24.21;63.55;97918.81;5043103;28;20263;-55
2023/08/13 08:34:15;;;;;;;3.45;2.78;;;22.90;99.90;;;24.26;63.37;97913.47;5043104;28;20044;-57
2023/08/13 08:36:43;;;;;;;3.53;2.60;;;22.90;99.90;;;24.28;63.55;97914.06;5041196;28;20056;-55
2023/08/13 08:39:11;;;;;;;4.72;2.70;;;23.00;99.90;;;24.31;62.98;97915.44;5040796;28;20049;-56
2023/08/13 08:41:44;;;;;;;3.28;2.30;;;23.00;99.90;;;24.38;63.15;97918.84;5032643;28;20037;-56
2023/08/13 08:44:20;;;;;;;3.45;2.55;;;23.10;99.90;;;24.48;63.40;97916.31;5040824;28;20037;-55
2023/08/13 08:46:53;;;;;;;4.03;2.90;;;23.20;99.90;;;24.50;62.72;97933.22;5044311;28;20420;-54
2023/08/13 08:49:21;;;;;;;3.63;2.53;;;23.20;99.90;;;24.52;62.17;97931.16;5042096;28;20056;-56
2023/08/13 08:51:50;;;;;;;4.45;2.92;;;23.10;99.90;;;24.53;61.79;97926.50;5040806;28;20052;-54
2023/08/13 08:54:18;;;;;;;3.80;2.50;;;23.10;99.90;;;24.54;61.60;97933.59;5041134;28;20065;-57
2023/08/13 08:56:46;;;;;;;3.30;2.72;;;23.10;99.90;;;24.53;61.61;97930.06;5038868;28;20042;-57
2023/08/13 08:59:14;;;;;;;3.78;2.75;;;23.00;99.90;;;24.51;61.55;97934.09;5041185;28;20048;-56
2023/08/13 09:01:42;;;;;;;3.33;2.78;;;23.00;99.90;;;24.49;61.44;97928.88;5042379;28;20500;-55
2023/08/13 09:04:09;;;;;;;4.00;2.90;;;23.00;99.90;;;24.47;61.86;97920.13;5033988;28;20041;-52
2023/08/13 09:07:01;;;;;;;3.65;3.15;;;23.00;99.90;;;24.46;62.46;97928.53;5040058;28;20049;-54
2023/08/13 09:09:31;;;;;;;4.07;2.80;;;23.10;99.90;;;24.48;62.16;97921.75;5043328;28;20048;-56
2023/08/13 09:11:59;;;;;;;8.52;3.25;;;23.00;99.90;;;24.46;62.55;97913.00;5042684;28;20072;-56
2023/08/13 09:14:27;;;;;;;4.50;3.20;;;23.00;99.90;;;24.48;62.99;97907.34;5040015;28;20041;-58
2023/08/13 09:16:56;;;;;;;4.00;3.10;;;23.10;99.90;;;24.48;62.65;97908.16;5040325;28;20033;-60
2023/08/13 09:19:27;;;;;;;3.50;2.60;;;23.00;99.90;;;24.46;62.67;97898.59;5039779;28;20496;-60
2023/08/13 09:22:00;;;;;;;3.42;2.95;;;23.00;99.90;;;24.42;63.07;97895.53;5040147;28;20045;-60
2023/08/13 09:24:32;;;;;;;3.55;2.47;;;23.10;99.90;;;24.46;63.11;97895.88;5042895;28;20386;-60
2023/08/13 09:27:01;;;;;;;4.20;2.55;;;23.10;99.90;;;24.48;63.07;97893.72;5043730;28;20037;-60
2023/08/13 09:29:32;;;;;;;3.30;2.70;;;23.10;99.90;;;24.52;62.93;97897.63;5039689;28;20045;-60
2023/08/13 09:32:02;;;;;;;3.65;3.25;;;23.10;99.90;;;24.54;62.41;97890.91;5038865;28;20037;-60
2023/08/13 09:34:31;;;;;;;3.90;2.40;;;23.10;99.90;;;24.58;62.63;97887.66;5042636;28;20508;-60
2023/08/13 09:36:59;;;;;;;6.05;2.95;;;23.20;99.90;;;24.55;61.90;97878.94;5043472;28;20040;-60
2023/08/13 09:39:29;;;;;;;6.15;3.08;;;23.10;99.90;;;24.57;62.27;97878.69;5040956;28;20060;-60
2023/08/13 09:41:59;;;;;;;3.42;2.63;;;23.10;99.90;;;24.61;62.89;97870.88;5039675;28;20050;-60
2023/08/13 09:44:28;;;;;;;4.70;4.25;;;23.20;99.90;;;24.61;62.07;97871.69;5041416;28;20528;-60
2023/08/13 09:47:02;;;;;;;5.38;3.10;;;23.20;99.90;;;24.62;62.28;97881.50;5043482;28;20033;-60
2023/08/13 09:49:32;;;;;;;3.95;3.35;;;23.20;99.90;;;24.62;62.08;97880.66;5040275;28;20048;-60
2023/08/13 09:52:08;;;;;;;4.50;2.85;;;23.30;99.90;;;24.57;61.72;97878.69;5038650;28;20045;-60
2023/08/13 09:54:45;;;;;;;6.05;3.80;;;23.20;99.90;;;24.56;61.82;97875.16;5041949;28;20041;-62
2023/08/13 09:57:17;;;;;;;3.03;2.67;;;23.10;99.90;;;24.58;62.51;97876.78;5041725;28;20056;-62
2023/08/13 09:59:45;;;;;;;3.50;2.70;;;23.10;99.90;;;24.63;62.39;97864.09;5033484;28;20436;-62
2023/08/13 10:02:14;;;;;;;5.32;3.60;;;23.30;99.90;;;24.68;62.31;97861.47;5042174;28;20412;-62
2023/08/13 10:04:42;;;;;;;5.35;3.17;;;23.40;99.90;;;24.74;62.10;97862.38;5038941;28;20056;-62
2023/08/13 10:07:12;;;;;;;4.78;3.53;;;23.40;99.90;;;24.77;62.61;97861.88;5038972;28;20481;-62
2023/08/13 10:09:40;;;;;;;6.60;3.95;;;23.50;99.90;;;24.82;62.38;97858.41;5029450;28;20386;-62
2023/08/13 10:12:11;;;;;;;3.85;3.05;;;23.60;99.90;;;24.85;62.45;97856.00;5036902;28;20049;-62
2023/08/13 10:14:39;;;;;;;4.55;4.15;;;23.60;99.90;;;24.88;62.58;97858.22;5030897;28;20049;-62
2023/08/13 10:17:07;;;;;;;4.15;2.90;;;23.70;99.90;;;24.92;61.80;97866.72;5037683;28;20045;-62
2023/08/13 10:19:40;;;;;;;5.30;3.33;;;23.70;99.90;;;24.99;61.93;97875.56;5039968;28;20057;-62
2023/08/13 10:22:09;;;;;;;3.63;3.00;;;23.80;99.90;;;25.04;61.08;97875.63;5042086;28;20041;-62
2023/08/13 10:24:37;;;;;;;5.18;3.42;;;23.80;99.90;;;25.08;60.93;97867.78;5030024;28;20046;-62
2023/08/13 10:27:05;;;;;;;3.58;2.85;;;23.80;99.90;;;25.15;61.13;97869.25;5038667;28;20481;-62